Time;durP1;ratioP1;P1;durP2;ratioP2;P2;SDS_P1;SDS_P2;PMS_P1;PMS_P2;Temp;Humidity;BMP_temperature;BMP_pressure;BME280_temperature;BME280_humidity;BME280_pressure;Samples;Min_cycle;Max_cycle;Signal;HPM_P1;HPM_P2
2023/06/22 00:00:51;;;;;;;17.02;11.90;;;18.70;99.90;;;;;;6274561;22;20015;-68
2023/06/22 00:03:21;;;;;;;13.77;10.95;;;18.60;99.90;;;;;;6249235;22;20012;-69
2023/06/22 00:05:48;;;;;;;15.85;12.98;;;18.50;99.90;;;;;;6274714;22;20023;-69
2023/06/22 00:08:14;;;;;;;12.73;10.68;;;18.30;99.90;;;;;;6275383;22;20019;-68
2023/06/22 00:10:40;;;;;;;13.85;9.88;;;18.20;99.90;;;;;;6249800;22;20090;-68
2023/06/22 00:13:07;;;;;;;11.93;9.80;;;18.30;99.90;;;;;;6249749;22;20012;-68
2023/06/22 00:15:33;;;;;;;12.25;9.85;;;18.20;99.90;;;;;;6248858;22;20350;-69
2023/06/22 00:17:59;;;;;;;12.75;10.32;;;18.20;99.90;;;;;;6275026;22;20019;-69
2023/06/22 00:20:29;;;;;;;13.88;11.15;;;18.20;99.90;;;;;;6249737;22;20315;-69
2023/06/22 00:22:56;;;;;;;15.55;11.88;;;18.20;99.90;;;;;;6275328;22;20011;-68
2023/06/22 00:25:22;;;;;;;14.32;11.95;;;18.20;99.90;;;;;;6274165;22;20019;-68
2023/06/22 00:27:48;;;;;;;13.82;11.57;;;18.20;99.90;;;;;;6248404;22;20012;-68
2023/06/22 00:30:18;;;;;;;13.93;11.38;;;18.10;99.90;;;;;;6275101;22;20468;-69
2023/06/22 00:32:44;;;;;;;13.82;12.20;;;18.10;99.90;;;;;;6275066;22;20012;-68
2023/06/22 00:35:10;;;;;;;15.38;13.15;;;18.10;99.90;;;;;;6249057;22;20011;-68
2023/06/22 00:37:38;;;;;;;16.98;13.70;;;18.10;99.90;;;;;;6248582;22;20012;-68
2023/06/22 00:40:04;;;;;;;14.32;12.50;;;18.00;99.90;;;;;;6275017;22;20074;-69
2023/06/22 00:42:30;;;;;;;12.38;10.73;;;17.90;99.90;;;;;;6274136;22;20508;-68
2023/06/22 00:44:56;;;;;;;10.15;9.05;;;17.90;99.90;;;;;;6273369;22;20019;-69
2023/06/22 00:47:22;;;;;;;11.02;9.80;;;17.90;99.90;;;;;;6275013;22;20040;-69
2023/06/22 00:49:52;;;;;;;11.23;9.27;;;17.80;99.90;;;;;;6249026;22;20165;-69
2023/06/22 00:52:21;;;;;;;9.50;8.48;;;17.80;99.90;;;;;;6274985;22;20342;-69
2023/06/22 00:54:51;;;;;;;8.85;7.55;;;17.70;99.90;;;;;;6248267;22;20083;-69
2023/06/22 00:57:18;;;;;;;9.23;6.80;;;17.70;99.90;;;;;;6248603;22;20027;-69
2023/06/22 00:59:45;;;;;;;7.82;6.22;;;17.70;99.90;;;;;;6248664;22;20079;-70
2023/06/22 01:02:11;;;;;;;7.18;5.68;;;17.60;99.90;;;;;;6248800;22;20019;-69
2023/06/22 01:04:38;;;;;;;7.55;6.22;;;17.60;99.90;;;;;;6248919;22;20012;-70
2023/06/22 01:07:36;;;;;;;8.25;7.05;;;17.50;99.90;;;;;;6274071;22;20092;-68
2023/06/22 01:10:10;;;;;;;9.63;7.63;;;17.30;99.90;;;;;;6223504;22;20011;-68
2023/06/22 01:12:43;;;;;;;8.40;6.60;;;17.30;99.90;;;;;;6248802;22;20019;-68
2023/06/22 01:15:20;;;;;;;8.98;7.57;;;17.30;99.90;;;;;;6248884;22;20008;-68
2023/06/22 01:17:48;;;;;;;10.20;8.40;;;17.30;99.90;;;;;;6248298;22;20011;-68
2023/06/22 01:20:16;;;;;;;9.32;8.32;;;17.30;99.90;;;;;;6274233;22;20014;-68
2023/06/22 01:23:19;;;;;;;8.82;7.93;;;17.30;99.90;;;;;;6274901;22;20022;-68
2023/06/22 01:25:50;;;;;;;9.30;8.20;;;17.20;99.90;;;;;;6273699;22;20011;-68
2023/06/22 01:28:30;;;;;;;12.63;10.90;;;17.10;99.90;;;;;;6274908;22;20030;-68
2023/06/22 01:31:05;;;;;;;13.38;11.20;;;16.90;99.90;;;;;;6276062;22;20392;-69
2023/06/22 01:33:37;;;;;;;16.15;13.60;;;16.80;99.90;;;;;;6276277;22;20737;-68
2023/06/22 01:36:04;;;;;;;15.48;13.57;;;16.70;99.90;;;;;;6250217;22;20065;-68
2023/06/22 01:38:31;;;;;;;16.13;13.57;;;16.60;99.90;;;;;;6251201;22;20050;-68
2023/06/22 01:40:58;;;;;;;17.33;15.48;;;16.50;99.90;;;;;;6276272;22;20018;-68
2023/06/22 01:43:28;;;;;;;16.80;14.75;;;16.50;99.90;;;;;;6250202;22;20023;-68
2023/06/22 01:45:55;;;;;;;20.42;16.52;;;16.50;99.90;;;;;;6250121;22;20011;-68
2023/06/22 01:48:21;;;;;;;17.70;14.68;;;16.50;99.90;;;;;;6276297;22;20011;-68
2023/06/22 01:50:47;;;;;;;19.10;16.38;;;16.60;99.90;;;;;;6250668;22;20078;-68
2023/06/22 01:53:13;;;;;;;12.77;9.75;;;16.50;99.90;;;;;;6276375;22;20043;-68
2023/06/22 01:55:38;;;;;;;11.60;9.48;;;16.60;99.90;;;;;;6301132;22;20008;-68
2023/06/22 01:58:04;;;;;;;13.18;9.07;;;16.60;99.90;;;;;;6249677;22;20061;-68
2023/06/22 02:00:36;;;;;;;13.48;11.52;;;16.60;99.90;;;;;;6301186;22;20008;-68
2023/06/22 02:03:19;;;;;;;16.58;14.88;;;16.60;99.90;;;;;;6250114;22;20014;-68
2023/06/22 02:05:52;;;;;;;17.52;15.18;;;16.50;99.90;;;;;;6249984;22;20027;-68
2023/06/22 02:08:41;;;;;;;16.15;14.30;;;16.40;99.90;;;;;;6276024;22;20103;-68
2023/06/22 02:11:10;;;;;;;18.60;16.48;;;16.40;99.90;;;;;;6275276;22;20376;-68
2023/06/22 02:13:37;;;;;;;13.93;11.35;;;16.40;99.90;;;;;;6275958;22;20454;-68
2023/06/22 02:16:03;;;;;;;11.98;10.05;;;16.40;99.90;;;;;;6250368;22;20410;-68
2023/06/22 02:18:29;;;;;;;11.63;9.68;;;16.40;99.90;;;;;;6275893;22;20532;-68
2023/06/22 02:20:55;;;;;;;12.75;10.88;;;16.40;99.90;;;;;;6275730;22;20011;-68
2023/06/22 02:23:20;;;;;;;11.85;9.80;;;16.40;99.90;;;;;;6275902;22;20019;-68
2023/06/22 02:25:46;;;;;;;11.60;10.20;;;16.40;99.90;;;;;;6249891;22;20065;-68
2023/06/22 02:28:11;;;;;;;11.27;9.65;;;16.50;99.90;;;;;;6275327;22;20016;-68
2023/06/22 02:30:37;;;;;;;9.73;8.35;;;16.40;99.90;;;;;;6302290;22;20018;-68
2023/06/22 02:33:03;;;;;;;9.82;8.45;;;16.40;99.90;;;;;;6300896;22;20085;-68
2023/06/22 02:35:35;;;;;;;10.35;8.98;;;16.40;99.90;;;;;;6250539;22;20058;-68
2023/06/22 02:38:01;;;;;;;;;;;16.30;99.90;;;;;;6276143;22;20053;-68
2023/06/22 02:40:29;;;;;;;9.18;8.18;;;16.20;99.90;;;;;;6250003;22;19911;-69
2023/06/22 02:42:57;;;;;;;11.55;10.27;;;16.10;99.90;;;;;;6250073;22;20472;-68
2023/06/22 02:45:23;;;;;;;11.43;10.23;;;16.00;99.90;;;;;;6249995;22;20019;-68
2023/06/22 02:47:49;;;;;;;11.40;10.13;;;16.00;99.90;;;;;;6275541;22;20015;-68
2023/06/22 02:50:15;;;;;;;11.50;10.30;;;16.00;99.90;;;;;;6250001;22;20086;-68
2023/06/22 02:52:40;;;;;;;8.98;8.07;;;16.10;99.90;;;;;;6276006;22;20011;-68
2023/06/22 02:55:08;;;;;;;9.00;8.10;;;16.10;99.90;;;;;;6248957;22;20447;-68
2023/06/22 02:57:33;;;;;;;8.90;8.00;;;16.10;99.90;;;;;;6249193;22;20007;-68
2023/06/22 02:59:59;;;;;;;9.38;8.40;;;15.90;99.90;;;;;;6249797;22;20449;-68
2023/06/22 03:02:26;;;;;;;9.13;8.23;;;16.00;99.90;;;;;;6249991;22;20007;-68
2023/06/22 03:04:53;;;;;;;12.27;11.07;;;16.00;99.90;;;;;;6248871;22;20065;-68
2023/06/22 03:07:19;;;;;;;12.77;11.45;;;15.90;99.90;;;;;;6224528;22;20085;-68
2023/06/22 03:09:45;;;;;;;13.43;11.75;;;15.80;99.90;;;;;;6274342;22;20022;-68
2023/06/22 03:12:11;;;;;;;14.52;11.80;;;15.70;99.90;;;;;;6245573;22;20343;-68
2023/06/22 03:14:36;;;;;;;12.68;11.38;;;15.70;99.90;;;;;;6274186;22;20016;-68
2023/06/22 03:17:03;;;;;;;10.90;9.65;;;15.70;99.90;;;;;;6271455;22;20100;-68
2023/06/22 03:19:31;;;;;;;12.18;10.88;;;15.70;99.90;;;;;;6245888;22;20083;-68
2023/06/22 03:21:57;;;;;;;14.32;12.82;;;15.60;99.90;;;;;;6247318;22;20505;-68
2023/06/22 03:24:23;;;;;;;16.95;14.52;;;15.60;99.90;;;;;;6247981;22;20450;-68
2023/06/22 03:26:49;;;;;;;21.52;18.63;;;15.60;99.90;;;;;;6248662;22;20070;-68
2023/06/22 03:29:15;;;;;;;11.63;9.32;;;15.70;99.90;;;;;;6248015;22;20015;-68
2023/06/22 03:31:41;;;;;;;11.15;9.30;;;15.70;99.90;;;;;;6247848;22;20076;-68
2023/06/22 03:34:06;;;;;;;11.32;9.85;;;15.70;99.90;;;;;;6299303;22;20012;-68
2023/06/22 03:36:32;;;;;;;23.42;20.88;;;15.60;99.90;;;;;;6248553;22;20011;-69
2023/06/22 03:38:57;;;;;;;22.20;19.65;;;15.60;99.90;;;;;;6273599;22;20342;-69
2023/06/22 03:41:23;;;;;;;25.02;22.38;;;15.60;99.90;;;;;;6273641;22;20016;-69
2023/06/22 03:43:49;;;;;;;26.40;23.60;;;15.60;99.90;;;;;;6248033;22;20043;-68
2023/06/22 03:46:14;;;;;;;27.40;24.50;;;15.60;99.90;;;;;;6248597;22;20438;-68
2023/06/22 03:48:40;;;;;;;27.20;23.85;;;15.60;99.90;;;;;;6273564;22;20012;-68
2023/06/22 03:51:05;;;;;;;27.80;24.90;;;15.60;99.90;;;;;;6274162;22;20505;-69
2023/06/22 03:53:31;;;;;;;26.23;23.40;;;15.70;99.90;;;;;;6247956;22;20061;-69
2023/06/22 03:55:57;;;;;;;27.88;24.55;;;15.70;99.90;;;;;;6272848;22;20480;-68
2023/06/22 03:58:22;;;;;;;26.33;23.52;;;15.70;99.90;;;;;;6274150;22;20018;-69
2023/06/22 04:00:49;;;;;;;25.63;22.83;;;15.80;99.90;;;;;;6247956;22;20016;-69
2023/06/22 04:03:15;;;;;;;25.77;23.13;;;15.80;99.90;;;;;;6248730;22;20042;-69
2023/06/22 04:05:41;;;;;;;28.43;24.13;;;15.90;99.90;;;;;;6227061;22;1053224;-68
2023/06/22 04:08:07;;;;;;;25.65;22.95;;;15.90;99.90;;;;;;6249815;22;20018;-69
2023/06/22 04:10:33;;;;;;;25.98;23.42;;;16.00;99.90;;;;;;6274218;22;20090;-69
2023/06/22 04:12:59;;;;;;;24.65;22.20;;;16.10;99.90;;;;;;6249619;22;20341;-68
2023/06/22 04:15:25;;;;;;;28.85;25.85;;;16.20;99.90;;;;;;6249781;22;20073;-68
2023/06/22 04:17:51;;;;;;;26.98;24.13;;;16.10;99.90;;;;;;6248514;22;20383;-68
2023/06/22 04:20:16;;;;;;;29.23;26.42;;;16.10;99.90;;;;;;6249750;22;20022;-69
2023/06/22 04:22:42;;;;;;;29.33;26.42;;;16.10;99.90;;;;;;6248343;22;20012;-69
2023/06/22 04:25:07;;;;;;;24.50;22.05;;;16.10;99.90;;;;;;6246934;22;20020;-69
2023/06/22 04:27:39;;;;;;;27.33;24.65;;;16.10;99.90;;;;;;6267171;22;20524;-69
2023/06/22 04:30:08;;;;;;;;;;;16.10;99.90;;;;;;6243081;22;20106;-69
2023/06/22 04:32:36;;;;;;;25.63;23.10;;;16.20;99.90;;;;;;6242219;22;19945;-69
2023/06/22 04:35:06;;;;;;;27.63;24.92;;;16.20;99.90;;;;;;6268216;22;20405;-68
2023/06/22 04:37:32;;;;;;;29.77;26.75;;;16.20;99.90;;;;;;6267075;22;20446;-69
2023/06/22 04:39:57;;;;;;;29.00;26.10;;;16.20;99.90;;;;;;6242518;22;20022;-69
2023/06/22 04:42:24;;;;;;;28.13;25.27;;;16.20;99.90;;;;;;6267614;22;20015;-69
2023/06/22 04:44:50;;;;;;;28.92;26.02;;;16.20;99.90;;;;;;6270332;22;20012;-69
2023/06/22 04:47:15;;;;;;;29.58;26.40;;;16.30;99.90;;;;;;6268409;22;20018;-68
2023/06/22 04:49:42;;;;;;;28.63;25.63;;;16.40;99.90;;;;;;6241848;22;20019;-69
2023/06/22 04:52:10;;;;;;;27.95;24.95;;;16.50;99.90;;;;;;6268455;22;20011;-68
2023/06/22 04:54:37;;;;;;;31.58;26.95;;;16.50;99.90;;;;;;6241310;22;20091;-68
2023/06/22 04:57:05;;;;;;;31.67;28.40;;;16.60;99.90;;;;;;6242411;22;20442;-69
2023/06/22 04:59:31;;;;;;;32.28;28.40;;;16.60;99.90;;;;;;6266859;22;20090;-69
2023/06/22 05:01:59;;;;;;;34.78;31.05;;;16.70;99.90;;;;;;6243381;22;20019;-69
2023/06/22 05:04:25;;;;;;;37.35;32.72;;;16.80;99.90;;;;;;6267413;22;20015;-69
2023/06/22 05:06:51;;;;;;;37.38;33.42;;;16.80;99.90;;;;;;6242870;22;20023;-69
2023/06/22 05:09:17;;;;;;;38.60;34.47;;;16.90;99.90;;;;;;6242592;22;20011;-69
2023/06/22 05:11:44;;;;;;;39.05;34.85;;;16.90;99.90;;;;;;6268341;22;20390;-69
2023/06/22 05:14:09;;;;;;;40.78;34.90;;;16.90;99.90;;;;;;6243474;22;20480;-69
2023/06/22 05:16:36;;;;;;;37.15;32.28;;;16.90;99.90;;;;;;6270218;22;20012;-69
2023/06/22 05:19:03;;;;;;;40.83;36.38;;;17.00;99.90;;;;;;6241977;22;20011;-69
2023/06/22 05:21:29;;;;;;;47.95;38.63;;;17.20;99.90;;;;;;6268001;22;20015;-69
2023/06/22 05:23:59;;;;;;;49.95;41.03;;;17.30;99.90;;;;;;6268540;22;20011;-69
2023/06/22 05:26:25;;;;;;;47.17;39.90;;;17.30;99.90;;;;;;6269837;22;20476;-68
2023/06/22 05:28:51;;;;;;;48.97;40.50;;;17.30;99.90;;;;;;6242202;22;20020;-68
2023/06/22 05:31:19;;;;;;;44.25;37.67;;;17.50;99.90;;;;;;6242563;22;20073;-68
2023/06/22 05:33:46;;;;;;;51.80;42.22;;;17.50;99.90;;;;;;6242203;22;20023;-68
2023/06/22 05:36:12;;;;;;;47.25;40.03;;;17.70;99.90;;;;;;6241858;22;20012;-68
2023/06/22 05:38:39;;;;;;;49.85;42.95;;;17.70;99.90;;;;;;6267876;22;20015;-68
2023/06/22 05:41:05;;;;;;;45.40;39.58;;;17.80;99.90;;;;;;6242124;22;20015;-68
2023/06/22 05:43:31;;;;;;;47.47;39.85;;;17.80;99.90;;;;;;6243067;22;20354;-69
2023/06/22 05:45:56;;;;;;;50.30;40.65;;;18.10;99.90;;;;;;6267997;22;20073;-68
2023/06/22 05:48:22;;;;;;;45.03;37.72;;;18.20;99.90;;;;;;6241969;22;20323;-68
2023/06/22 05:50:47;;;;;;;43.15;37.53;;;18.30;99.90;;;;;;6267682;22;20465;-68
2023/06/22 05:53:13;;;;;;;44.60;36.80;;;18.30;99.90;;;;;;6267993;22;20012;-68
2023/06/22 05:55:39;;;;;;;42.15;36.33;;;18.40;99.90;;;;;;6268098;22;20018;-69
2023/06/22 05:58:05;;;;;;;40.15;35.80;;;18.50;99.90;;;;;;6267221;22;20338;-69
2023/06/22 06:00:30;;;;;;;38.17;34.10;;;18.60;99.90;;;;;;6242073;22;20012;-69
2023/06/22 06:02:56;;;;;;;41.25;36.72;;;18.60;99.90;;;;;;6245244;22;20030;-69
2023/06/22 06:05:23;;;;;;;38.60;34.53;;;18.80;99.90;;;;;;6260866;22;20008;-69
2023/06/22 06:07:49;;;;;;;39.22;35.00;;;18.90;99.90;;;;;;6266720;22;20016;-69
2023/06/22 06:10:15;;;;;;;42.97;35.85;;;19.00;99.90;;;;;;6266990;22;20015;-69
2023/06/22 06:12:40;;;;;;;38.25;33.33;;;19.10;99.90;;;;;;6240506;22;20058;-69
2023/06/22 06:15:06;;;;;;;39.50;31.98;;;19.10;99.90;;;;;;6269807;22;20023;-69
2023/06/22 06:17:32;;;;;;;36.40;31.90;;;19.10;99.90;;;;;;6242786;22;20066;-69
2023/06/22 06:19:59;;;;;;;33.63;29.98;;;19.20;99.90;;;;;;6267284;22;20012;-71
2023/06/22 06:22:25;;;;;;;33.75;29.77;;;19.30;99.90;;;;;;6241762;22;20035;-71
2023/06/22 06:24:50;;;;;;;33.65;28.45;;;19.30;99.90;;;;;;6271924;22;20323;-71
2023/06/22 06:27:18;;;;;;;35.33;30.27;;;19.30;99.90;;;;;;6266406;22;20018;-71
2023/06/22 06:29:45;;;;;;;33.70;29.13;;;19.30;99.90;;;;;;6245419;22;20440;-71
2023/06/22 06:32:11;;;;;;;33.22;28.35;;;19.50;99.90;;;;;;6267930;22;20011;-70
2023/06/22 06:34:36;;;;;;;34.35;29.90;;;19.60;99.90;;;;;;6266757;22;20020;-69
2023/06/22 06:37:02;;;;;;;31.02;27.67;;;19.60;99.90;;;;;;6266476;22;20014;-70
2023/06/22 06:39:28;;;;;;;30.02;26.58;;;19.70;99.90;;;;;;6266743;22;20012;-70
2023/06/22 06:41:53;;;;;;;28.00;25.00;;;19.80;99.90;;;;;;6267939;22;20563;-70
2023/06/22 06:44:19;;;;;;;24.48;21.08;;;20.00;99.90;;;;;;6241341;22;20073;-69
2023/06/22 06:46:44;;;;;;;22.88;20.23;;;20.00;99.90;;;;;;6241386;22;20350;-72
2023/06/22 06:49:10;;;;;;;21.08;18.88;;;20.10;99.90;;;;;;6266986;22;20102;-73
2023/06/22 06:51:36;;;;;;;20.77;18.17;;;20.20;99.90;;;;;;6241920;22;20024;-71
2023/06/22 06:54:03;;;;;;;18.98;16.95;;;20.10;99.90;;;;;;6267728;22;20016;-73
2023/06/22 06:56:30;;;;;;;19.77;16.65;;;20.20;99.90;;;;;;6240872;22;20450;-74
2023/06/22 06:58:55;;;;;;;19.35;16.75;;;20.30;99.90;;;;;;6241923;22;20011;-73
2023/06/22 07:01:21;;;;;;;17.73;15.80;;;20.30;99.90;;;;;;6267210;22;20377;-74
2023/06/22 07:03:46;;;;;;;16.73;15.00;;;20.30;99.90;;;;;;6269199;22;20578;-69
2023/06/22 07:06:13;;;;;;;16.00;13.48;;;20.30;99.90;;;;;;6240187;22;20027;-69
2023/06/22 07:08:39;;;;;;;18.50;14.50;;;20.40;99.90;;;;;;6266657;22;20022;-69
2023/06/22 07:11:05;;;;;;;16.73;14.63;;;20.50;99.90;;;;;;6245572;22;20098;-69
2023/06/22 07:13:31;;;;;;;17.15;13.82;;;20.50;99.90;;;;;;6272975;22;20043;-69
2023/06/22 07:15:57;;;;;;;14.18;12.60;;;20.50;99.90;;;;;;6248753;22;20007;-69
2023/06/22 07:18:23;;;;;;;13.85;11.65;;;20.60;99.90;;;;;;6249042;22;20003;-69
2023/06/22 07:20:48;;;;;;;15.40;11.88;;;20.60;99.90;;;;;;6275170;22;20445;-69
2023/06/22 07:23:14;;;;;;;16.98;12.60;;;20.60;99.90;;;;;;6274606;22;20012;-69
2023/06/22 07:25:39;;;;;;;15.43;11.88;;;20.60;99.90;;;;;;6248957;22;20019;-69
2023/06/22 07:28:07;;;;;;;13.13;10.35;;;20.70;99.90;;;;;;6273315;22;20015;-69
2023/06/22 07:30:33;;;;;;;13.88;10.43;;;20.70;99.90;;;;;;6274113;22;20007;-69
2023/06/22 07:33:03;;;;;;;13.30;9.07;;;20.80;99.90;;;;;;6248848;22;20011;-69
2023/06/22 07:35:30;;;;;;;10.80;8.63;;;20.90;99.90;;;;;;6300571;22;20046;-69
2023/06/22 07:37:56;;;;;;;15.27;8.82;;;20.90;99.90;;;;;;6274423;22;20022;-69
2023/06/22 07:40:21;;;;;;;11.80;8.90;;;21.00;99.90;;;;;;6248821;22;20003;-69
2023/06/22 07:42:51;;;;;;;12.25;8.70;;;21.10;99.90;;;;;;6249897;22;20015;-69
2023/06/22 07:45:17;;;;;;;13.20;8.50;;;21.20;99.90;;;;;;6275194;22;20453;-69
2023/06/22 07:47:42;;;;;;;10.77;8.48;;;21.10;99.90;;;;;;6300130;22;20019;-69
2023/06/22 07:50:08;;;;;;;9.82;7.32;;;21.30;99.90;;;;;;6325598;22;20022;-68
2023/06/22 07:52:34;;;;;;;11.50;7.88;;;21.40;99.90;;;;;;6274552;22;20023;-68
2023/06/22 07:55:00;;;;;;;9.52;6.57;;;21.50;99.90;;;;;;6274411;22;20008;-69
2023/06/22 07:57:36;;;;;;;11.00;6.82;;;21.60;99.90;;;;;;6299192;22;20026;-69
2023/06/22 08:00:14;;;;;;;10.20;6.53;;;21.70;99.90;;;;;;6247815;22;20015;-69
2023/06/22 08:02:41;;;;;;;12.18;7.03;;;21.80;99.90;;;;;;6274254;22;20083;-69
2023/06/22 08:05:08;;;;;;;12.00;7.10;;;21.80;99.90;;;;;;6248161;22;20020;-69
2023/06/22 08:07:36;;;;;;;11.20;7.15;;;21.90;99.90;;;;;;6273811;22;20088;-69
2023/06/22 08:10:02;;;;;;;11.00;7.38;;;22.00;99.90;;;;;;6249071;22;20047;-69
2023/06/22 08:12:28;;;;;;;10.55;7.28;;;22.00;99.90;;;;;;6247314;22;20008;-69
2023/06/22 08:14:53;;;;;;;10.07;7.07;;;22.20;99.90;;;;;;6274211;22;20385;-69
2023/06/22 08:17:19;;;;;;;11.88;7.88;;;22.20;99.90;;;;;;6299541;22;20016;-69
2023/06/22 08:19:45;;;;;;;9.80;7.22;;;22.30;99.90;;;;;;6248812;22;20012;-69
2023/06/22 08:22:10;;;;;;;11.68;7.30;;;22.30;99.90;;;;;;6248235;22;20533;-69
2023/06/22 08:24:36;;;;;;;11.02;7.45;;;22.50;99.90;;;;;;6273858;22;20011;-69
2023/06/22 08:27:01;;;;;;;13.32;7.50;;;22.50;99.90;;;;;;6247719;22;20011;-69
2023/06/22 08:29:27;;;;;;;12.38;8.30;;;22.60;99.90;;;;;;6272737;22;20019;-69
2023/06/22 08:31:52;;;;;;;13.85;7.93;;;22.70;99.90;;;;;;6325274;22;20015;-69
2023/06/22 08:34:21;;;;;;;13.02;8.65;;;22.70;99.90;;;;;;6273864;22;20011;-68
2023/06/22 08:36:52;;;;;;;12.98;8.50;;;22.80;99.90;;;;;;6248545;22;20011;-69
2023/06/22 08:39:21;;;;;;;11.02;8.10;;;22.90;99.90;;;;;;6273517;22;20103;-69
2023/06/22 08:41:48;;;;;;;13.48;8.50;;;23.00;99.90;;;;;;6299675;22;20061;-69
2023/06/22 08:44:13;;;;;;;11.60;7.80;;;23.00;99.90;;;;;;6298395;22;20022;-69
2023/06/22 08:46:40;;;;;;;13.70;9.00;;;23.10;99.90;;;;;;6247044;22;20020;-69
2023/06/22 08:49:06;;;;;;;12.40;8.93;;;23.20;99.90;;;;;;6273858;22;20030;-69
2023/06/22 08:51:32;;;;;;;13.05;9.18;;;23.20;99.90;;;;;;6246918;22;20015;-69
2023/06/22 08:53:58;;;;;;;12.05;7.82;;;23.20;99.90;;;;;;6273910;22;20012;-69
2023/06/22 08:56:23;;;;;;;12.82;8.05;;;23.30;99.90;;;;;;6325454;22;20043;-69
2023/06/22 08:58:49;;;;;;;13.25;10.32;;;23.30;99.90;;;;;;6248032;22;20003;-69
2023/06/22 09:01:15;;;;;;;11.32;7.82;;;23.40;99.90;;;;;;6247301;22;20323;-69
2023/06/22 09:03:41;;;;;;;13.80;8.15;;;23.60;99.90;;;;;;6299308;22;20012;-69
2023/06/22 09:06:09;;;;;;;12.00;8.02;;;23.80;99.90;;;;;;6248092;22;20034;-69
2023/06/22 09:08:37;;;;;;;12.38;8.80;;;23.80;99.90;;;;;;6325475;22;20082;-69
2023/06/22 09:11:03;;;;;;;11.88;8.55;;;23.70;99.90;;;;;;6297525;22;20063;-68
2023/06/22 09:13:31;;;;;;;11.63;8.60;;;23.70;99.90;;;;;;6247773;22;20012;-68
2023/06/22 09:15:59;;;;;;;12.95;9.65;;;23.80;99.90;;;;;;6248079;22;20007;-68
2023/06/22 09:18:25;;;;;;;10.68;6.85;;;23.80;99.90;;;;;;6273915;22;20008;-69
2023/06/22 09:20:50;;;;;;;12.68;8.20;;;23.90;99.90;;;;;;6272605;22;20012;-69
2023/06/22 09:23:16;;;;;;;11.82;7.43;;;24.00;99.90;;;;;;6299359;22;20020;-70
2023/06/22 09:25:47;;;;;;;11.05;7.57;;;24.00;99.90;;;;;;6247447;22;20011;-69
2023/06/22 09:28:12;;;;;;;12.75;9.63;;;24.10;99.90;;;;;;6273732;22;20019;-68
2023/06/22 09:30:38;;;;;;;11.52;8.20;;;24.20;99.90;;;;;;6299409;22;20023;-68
2023/06/22 09:33:03;;;;;;;12.05;8.07;;;24.30;99.90;;;;;;6247361;22;20391;-68
2023/06/22 09:35:29;;;;;;;12.65;8.27;;;24.30;99.90;;;;;;6326199;22;20011;-68
2023/06/22 09:37:55;;;;;;;11.32;8.05;;;24.40;99.90;;;;;;6299333;22;20020;-69
2023/06/22 09:40:20;;;;;;;11.48;8.10;;;24.50;99.90;;;;;;6297175;22;20087;-69
2023/06/22 09:42:46;;;;;;;12.05;7.45;;;24.50;99.90;;;;;;6242773;22;20023;-69
2023/06/22 09:45:11;;;;;;;13.93;8.13;;;24.50;99.90;;;;;;6299322;22;20023;-69
2023/06/22 09:47:37;;;;;;;11.50;7.15;;;24.60;99.90;;;;;;6323989;22;20015;-69
2023/06/22 09:50:03;;;;;;;12.70;9.52;;;24.70;99.90;;;;;;6298650;22;20381;-69
2023/06/22 09:52:29;;;;;;;11.30;7.97;;;24.60;99.90;;;;;;6250534;22;20008;-69
2023/06/22 09:54:54;;;;;;;11.60;8.15;;;24.70;99.90;;;;;;6327591;22;20019;-69
2023/06/22 09:57:20;;;;;;;11.38;8.52;;;24.60;99.90;;;;;;6327553;22;20481;-69
2023/06/22 09:59:45;;;;;;;10.13;7.25;;;24.70;99.90;;;;;;6301190;22;20480;-69
2023/06/22 10:02:11;;;;;;;11.40;7.78;;;24.80;99.90;;;;;;6301577;22;20468;-69
2023/06/22 10:04:36;;;;;;;10.95;7.93;;;24.70;99.90;;;;;;6272435;22;20392;-69
2023/06/22 10:07:03;;;;;;;11.98;6.18;;;24.80;99.90;;;;;;6275394;22;20022;-69
2023/06/22 10:09:28;;;;;;;12.63;7.60;;;24.80;99.90;;;;;;6250288;22;20081;-69
2023/06/22 10:11:54;;;;;;;9.68;6.93;;;24.90;99.90;;;;;;6327260;22;20011;-69
2023/06/22 10:14:19;;;;;;;11.50;6.03;;;25.00;99.90;;;;;;6327282;22;20064;-69
2023/06/22 10:16:45;;;;;;;11.00;6.93;;;25.10;99.90;;;;;;6326907;22;20007;-69
2023/06/22 10:19:11;;;;;;;10.65;7.72;;;25.20;99.90;;;;;;6249772;22;20567;-69
2023/06/22 10:21:36;;;;;;;10.25;6.93;;;25.20;99.90;;;;;;6325333;22;20454;-69
2023/06/22 10:24:05;;;;;;;11.55;6.63;;;25.40;99.90;;;;;;6274499;22;20032;-69
2023/06/22 10:26:35;;;;;;;11.48;7.10;;;25.30;99.90;;;;;;6272929;22;20019;-69
2023/06/22 10:29:02;;;;;;;8.35;5.75;;;25.30;99.90;;;;;;6247084;22;20012;-69
2023/06/22 10:31:27;;;;;;;9.13;5.60;;;25.20;99.90;;;;;;6272792;22;20080;-69
2023/06/22 10:33:54;;;;;;;10.50;5.43;;;25.30;99.90;;;;;;6272788;22;20094;-69
2023/06/22 10:36:20;;;;;;;8.63;6.10;;;25.40;99.90;;;;;;6273154;22;20011;-69
2023/06/22 10:38:47;;;;;;;9.73;6.00;;;25.40;99.90;;;;;;6249722;22;20458;-69
2023/06/22 10:41:12;;;;;;;11.45;6.32;;;25.50;99.90;;;;;;6275911;22;20461;-69
2023/06/22 10:43:38;;;;;;;12.35;7.25;;;25.40;99.90;;;;;;6274605;22;20012;-70
2023/06/22 10:46:04;;;;;;;11.25;5.95;;;25.40;99.90;;;;;;6249181;22;20016;-69
2023/06/22 10:48:29;;;;;;;7.95;5.47;;;25.40;99.90;;;;;;6327162;22;20399;-69
2023/06/22 10:50:55;;;;;;;11.45;7.05;;;25.60;99.90;;;;;;6249472;22;20007;-69
2023/06/22 10:53:21;;;;;;;11.40;7.00;;;25.70;99.90;;;;;;6300454;22;20089;-69
2023/06/22 10:55:47;;;;;;;9.55;7.35;;;25.60;99.90;;;;;;6275088;22;20012;-69
2023/06/22 10:58:12;;;;;;;9.40;5.30;;;25.70;99.90;;;;;;6274586;22;20012;-69
2023/06/22 11:00:38;;;;;;;9.60;5.50;;;25.80;99.90;;;;;;6300487;22;20014;-70
2023/06/22 11:03:04;;;;;;;9.18;5.40;;;25.80;99.90;;;;;;6274604;22;20111;-69
2023/06/22 11:05:29;;;;;;;9.77;5.05;;;25.80;99.90;;;;;;6247132;22;20506;-69
2023/06/22 11:07:55;;;;;;;11.80;6.57;;;25.70;99.90;;;;;;6273446;22;20011;-69
2023/06/22 11:10:20;;;;;;;10.48;6.60;;;25.70;99.90;;;;;;6301713;22;20011;-69
2023/06/22 11:12:46;;;;;;;9.20;5.60;;;25.70;99.90;;;;;;6250186;22;20575;-69
2023/06/22 11:15:12;;;;;;;8.43;5.78;;;25.70;99.90;;;;;;6326530;22;20019;-69
2023/06/22 11:17:37;;;;;;;8.93;6.30;;;25.70;99.90;;;;;;6301686;22;20014;-70
2023/06/22 11:20:10;;;;;;;8.32;4.97;;;25.60;99.90;;;;;;6250225;22;20376;-69
2023/06/22 11:22:37;;;;;;;8.65;4.72;;;25.70;99.90;;;;;;6274292;22;20069;-69
2023/06/22 11:25:02;;;;;;;9.23;5.80;;;25.70;99.90;;;;;;6248878;22;20014;-69
2023/06/22 11:27:31;;;;;;;9.65;5.90;;;25.60;99.90;;;;;;6249222;22;20087;-72
2023/06/22 11:29:56;;;;;;;8.65;5.22;;;25.50;99.90;;;;;;6301565;22;20022;-69
2023/06/22 11:32:22;;;;;;;8.40;5.50;;;25.50;99.90;;;;;;6250019;22;20011;-69
2023/06/22 11:34:48;;;;;;;9.50;5.05;;;25.40;99.90;;;;;;6250008;22;20011;-69
2023/06/22 11:37:15;;;;;;;8.57;5.22;;;25.20;99.90;;;;;;6324915;22;20442;-70
2023/06/22 11:39:41;;;;;;;10.23;6.18;;;25.30;99.90;;;;;;6275676;22;20012;-69
2023/06/22 11:42:06;;;;;;;10.88;6.20;;;25.10;99.90;;;;;;6249585;22;20393;-69
2023/06/22 11:44:32;;;;;;;9.73;6.38;;;25.00;99.90;;;;;;6275551;22;20023;-69
2023/06/22 11:46:58;;;;;;;9.30;5.60;;;25.00;99.90;;;;;;6301340;22;20034;-72
2023/06/22 11:49:23;;;;;;;9.15;5.78;;;25.00;99.90;;;;;;6300893;22;20019;-69
2023/06/22 11:51:49;;;;;;;8.73;5.28;;;25.00;99.90;;;;;;6273472;22;20022;-70
2023/06/22 11:54:14;;;;;;;9.27;5.55;;;25.00;99.90;;;;;;6246454;22;20019;-70
2023/06/22 11:56:40;;;;;;;10.05;5.22;;;25.10;99.90;;;;;;6249457;22;20451;-69
2023/06/22 11:59:05;;;;;;;10.27;6.00;;;25.10;99.90;;;;;;6275429;22;20012;-69
2023/06/22 12:01:33;;;;;;;9.85;5.82;;;25.10;99.90;;;;;;6249772;22;20039;-69
2023/06/22 12:03:59;;;;;;;9.88;6.00;;;25.20;99.90;;;;;;6273701;22;20011;-69
2023/06/22 12:06:24;;;;;;;9.48;5.43;;;25.10;99.90;;;;;;6249506;22;20023;-69
2023/06/22 12:08:50;;;;;;;9.38;5.75;;;25.10;99.90;;;;;;6327272;22;20067;-69
2023/06/22 12:11:15;;;;;;;7.65;5.30;;;25.10;99.90;;;;;;6301119;22;20492;-69
2023/06/22 12:13:41;;;;;;;9.50;5.78;;;25.10;99.90;;;;;;6325223;22;20018;-69
2023/06/22 12:16:06;;;;;;;7.63;5.07;;;25.10;99.90;;;;;;6248795;22;20012;-71
2023/06/22 12:18:33;;;;;;;8.88;5.20;;;25.10;99.90;;;;;;6249772;22;20471;-69
2023/06/22 12:20:58;;;;;;;9.40;5.25;;;25.10;99.90;;;;;;6325504;22;20008;-73
2023/06/22 12:23:24;;;;;;;10.27;4.93;;;25.10;99.90;;;;;;6300690;22;20054;-73
2023/06/22 12:25:50;;;;;;;13.57;6.55;;;25.00;99.90;;;;;;6249698;22;20023;-74
2023/06/22 12:28:15;;;;;;;9.32;6.05;;;25.10;99.90;;;;;;6298093;22;20402;-78
2023/06/22 12:30:41;;;;;;;9.27;5.80;;;25.10;99.90;;;;;;6299433;22;20076;-75
2023/06/22 12:33:06;;;;;;;7.93;5.50;;;25.00;99.90;;;;;;6249160;22;20022;-71